createdAt,value
2023-02-27T00:00:37.220Z,1.00
2023-02-27T00:03:05.310Z,1.00
2023-02-27T00:05:34.578Z,1.00
2023-02-27T00:08:02.530Z,1.00
2023-02-27T00:10:30.447Z,1.00
2023-02-27T00:12:58.313Z,1.00
2023-02-27T00:15:26.384Z,1.00
2023-02-27T00:17:54.344Z,1.00
2023-02-27T00:20:22.392Z,1.00
2023-02-27T00:22:51.907Z,0.90
2023-02-27T00:25:19.866Z,0.90
2023-02-27T00:27:47.748Z,1.00
2023-02-27T00:30:16.592Z,0.90
2023-02-27T00:32:44.787Z,0.90
2023-02-27T00:35:13.594Z,0.90
2023-02-27T00:37:41.717Z,0.90
2023-02-27T00:40:12.690Z,0.90
2023-02-27T00:42:41.010Z,0.90
2023-02-27T00:45:09.996Z,0.90
2023-02-27T00:47:37.851Z,0.90
2023-02-27T00:50:06.879Z,0.80
2023-02-27T00:52:34.765Z,0.80
2023-02-27T00:55:02.636Z,0.80
2023-02-27T00:57:31.924Z,0.80
2023-02-27T00:59:59.792Z,0.80
2023-02-27T01:02:28.201Z,0.80
2023-02-27T01:04:56.082Z,0.80
2023-02-27T01:07:24.003Z,0.80
2023-02-27T01:09:51.903Z,0.80
2023-02-27T01:12:19.806Z,0.80
2023-02-27T01:14:49.346Z,0.80
2023-02-27T01:17:17.268Z,0.80
2023-02-27T01:19:45.186Z,0.80
2023-02-27T01:22:13.597Z,0.80
2023-02-27T01:24:41.643Z,0.80
2023-02-27T01:27:09.568Z,0.80
2023-02-27T01:29:37.509Z,0.80
2023-02-27T01:32:06.780Z,0.80
2023-02-27T01:34:34.901Z,0.80
2023-02-27T01:37:02.763Z,0.80
2023-02-27T01:39:32.816Z,0.80
2023-02-27T01:42:01.037Z,0.80
2023-02-27T01:44:30.294Z,0.80
2023-02-27T01:46:58.793Z,0.70
2023-02-27T01:49:32.346Z,0.70
2023-02-27T01:52:06.135Z,0.70
2023-02-27T01:54:39.921Z,0.70
2023-02-27T01:57:08.899Z,0.70
2023-02-27T01:59:40.497Z,0.70
2023-02-27T02:02:15.675Z,0.70
2023-02-27T02:04:46.312Z,0.70
2023-02-27T02:07:18.607Z,0.70
2023-02-27T02:09:49.953Z,0.70
2023-02-27T02:12:21.047Z,0.70
2023-02-27T02:14:48.879Z,0.70
2023-02-27T02:17:23.308Z,0.70
2023-02-27T02:20:20.855Z,0.70
2023-02-27T02:23:19.222Z,0.70
2023-02-27T02:26:14.996Z,0.70
2023-02-27T02:29:12.203Z,0.70
2023-02-27T02:32:24.345Z,0.60
2023-02-27T02:35:22.914Z,0.60
2023-02-27T02:38:29.700Z,0.60
2023-02-27T02:41:03.477Z,0.60
2023-02-27T02:43:38.073Z,0.60
2023-02-27T02:46:14.156Z,0.60
2023-02-27T02:48:48.454Z,0.60
2023-02-27T02:51:23.498Z,0.50
2023-02-27T02:54:00.915Z,0.50
2023-02-27T02:56:36.597Z,0.50
2023-02-27T02:59:10.325Z,0.50
2023-02-27T03:01:42.636Z,0.50
2023-02-27T03:04:16.797Z,0.50
2023-02-27T03:06:50.790Z,0.50
2023-02-27T03:09:25.543Z,0.50
2023-02-27T03:11:58.071Z,0.50
2023-02-27T03:14:34.236Z,0.40
2023-02-27T03:17:07.841Z,0.50
2023-02-27T03:19:41.343Z,0.50
2023-02-27T03:22:11.526Z,0.40
2023-02-27T03:24:42.936Z,0.50
2023-02-27T03:27:13.499Z,0.50
2023-02-27T03:29:48.584Z,0.50
2023-02-27T03:32:21.652Z,0.40
2023-02-27T03:34:50.254Z,0.40
2023-02-27T03:37:29.013Z,0.40
2023-02-27T03:40:06.422Z,0.40
2023-02-27T03:42:40.599Z,0.40
2023-02-27T03:45:17.635Z,0.40
2023-02-27T03:47:45.688Z,0.40
2023-02-27T03:50:14.060Z,0.40
2023-02-27T03:52:42.190Z,0.40
2023-02-27T03:55:14.728Z,0.40
2023-02-27T03:57:45.885Z,0.40
2023-02-27T04:00:16.781Z,0.30
2023-02-27T04:02:46.833Z,0.30
2023-02-27T04:05:14.825Z,0.40
2023-02-27T04:07:52.981Z,0.40
2023-02-27T04:10:33.681Z,0.30
2023-02-27T04:13:19.678Z,0.30
2023-02-27T04:16:11.949Z,0.30
2023-02-27T04:18:56.955Z,0.30
2023-02-27T04:21:32.117Z,0.30
2023-02-27T04:24:13.445Z,0.30
2023-02-27T04:26:46.840Z,0.30
2023-02-27T04:29:19.708Z,0.30
2023-02-27T04:31:55.747Z,0.30
2023-02-27T04:34:30.171Z,0.30
2023-02-27T04:37:01.348Z,0.30
2023-02-27T04:39:33.441Z,0.30
2023-02-27T04:42:04.072Z,0.20
2023-02-27T04:44:37.101Z,0.30
2023-02-27T04:47:07.794Z,0.30
2023-02-27T04:49:41.128Z,0.20
2023-02-27T04:52:13.286Z,0.20
2023-02-27T04:54:44.504Z,0.20
2023-02-27T04:57:19.388Z,0.20
2023-02-27T04:59:52.310Z,0.20
2023-02-27T05:02:25.267Z,0.20
2023-02-27T05:04:59.637Z,0.20
2023-02-27T05:07:32.235Z,0.20
2023-02-27T05:10:04.120Z,0.20
2023-02-27T05:12:39.766Z,0.10
2023-02-27T05:15:13.797Z,0.20
2023-02-27T05:17:47.705Z,0.20
2023-02-27T05:20:17.824Z,0.20
2023-02-27T05:22:48.960Z,0.10
2023-02-27T05:25:24.673Z,0.10
2023-02-27T05:27:57.541Z,0.10
2023-02-27T05:30:29.979Z,0.10
2023-02-27T05:33:02.863Z,0.10
2023-02-27T05:35:35.096Z,0.10
2023-02-27T05:38:08.642Z,0.10
2023-02-27T05:40:40.499Z,0.00
2023-02-27T05:43:13.732Z,0.00
2023-02-27T05:45:47.801Z,0.00
2023-02-27T05:48:19.850Z,0.00
2023-02-27T05:50:51.109Z,0.00
2023-02-27T05:53:22.050Z,0.00
2023-02-27T05:55:52.173Z,0.00
2023-02-27T05:58:24.898Z,0.00
2023-02-27T06:00:58.487Z,0.00
2023-02-27T06:03:27.008Z,0.00
2023-02-27T06:05:55.588Z,0.00
2023-02-27T06:08:25.234Z,-0.10
2023-02-27T06:10:55.073Z,0.00
2023-02-27T06:13:23.329Z,0.00
2023-02-27T06:15:51.438Z,0.00
2023-02-27T06:18:21.596Z,0.00
2023-02-27T06:20:49.708Z,0.00
2023-02-27T06:23:18.169Z,0.00
2023-02-27T06:25:46.159Z,0.00
2023-02-27T06:28:14.025Z,0.00
2023-02-27T06:30:42.222Z,0.00
2023-02-27T06:33:10.509Z,0.00
2023-02-27T06:35:39.792Z,0.00
2023-02-27T06:38:07.681Z,0.00
2023-02-27T06:40:35.640Z,0.00
2023-02-27T06:43:03.483Z,0.10
2023-02-27T06:45:31.423Z,0.10
2023-02-27T06:47:59.339Z,0.10
2023-02-27T06:50:27.448Z,0.10
2023-02-27T06:52:56.683Z,0.10
2023-02-27T06:55:25.744Z,0.10
2023-02-27T06:57:53.645Z,0.20
2023-02-27T07:00:22.317Z,0.20
2023-02-27T07:02:50.426Z,0.20
2023-02-27T07:05:18.956Z,0.30
2023-02-27T07:07:46.900Z,0.40
2023-02-27T07:10:16.507Z,0.40
2023-02-27T07:12:44.389Z,0.40
2023-02-27T07:15:12.791Z,0.40
2023-02-27T07:17:40.821Z,0.50
2023-02-27T07:20:11.141Z,0.60
2023-02-27T07:22:39.759Z,0.60
2023-02-27T07:25:09.287Z,0.70
2023-02-27T07:27:38.593Z,0.80
2023-02-27T07:30:07.547Z,0.80
2023-02-27T07:32:36.018Z,0.90
2023-02-27T07:35:04.290Z,1.00
2023-02-27T07:37:32.135Z,1.10
2023-02-27T07:40:00.511Z,1.10
2023-02-27T07:42:28.432Z,1.20
2023-02-27T07:44:57.629Z,1.40
2023-02-27T07:47:25.562Z,1.50
2023-02-27T07:49:53.482Z,1.70
2023-02-27T07:52:21.352Z,2.00
2023-02-27T07:54:49.227Z,2.30
2023-02-27T07:57:17.156Z,2.50
2023-02-27T07:59:45.015Z,2.70
2023-02-27T08:02:14.362Z,2.80
2023-02-27T08:04:42.415Z,3.10
2023-02-27T08:07:10.282Z,3.20
2023-02-27T08:09:38.209Z,3.40
2023-02-27T08:12:06.424Z,3.60
2023-02-27T08:14:34.309Z,3.80
2023-02-27T08:17:02.269Z,4.00
2023-02-27T08:19:31.559Z,4.20
2023-02-27T08:21:59.402Z,4.30
2023-02-27T08:24:27.532Z,4.50
2023-02-27T08:26:55.381Z,4.70
2023-02-27T08:29:23.312Z,4.90
2023-02-27T08:31:51.491Z,5.10
2023-02-27T08:34:19.664Z,5.20
2023-02-27T08:36:48.883Z,5.30
2023-02-27T08:39:17.726Z,5.50
2023-02-27T08:41:46.249Z,5.70
2023-02-27T08:44:14.413Z,5.90
2023-02-27T08:46:42.540Z,6.00
2023-02-27T08:49:10.472Z,6.20
2023-02-27T08:51:38.382Z,6.50
2023-02-27T08:54:07.648Z,6.60
2023-02-27T08:56:35.622Z,6.90
2023-02-27T08:59:03.649Z,7.10
2023-02-27T09:01:34.547Z,7.20
2023-02-27T09:04:03.791Z,7.40
2023-02-27T09:06:32.800Z,7.60
2023-02-27T09:09:01.192Z,7.90
2023-02-27T09:11:30.995Z,8.20
2023-02-27T09:13:59.232Z,8.40
2023-02-27T09:16:27.522Z,8.60
2023-02-27T09:18:55.774Z,8.90
2023-02-27T09:21:24.725Z,9.30
2023-02-27T09:23:52.943Z,9.70
2023-02-27T09:26:24.577Z,10.10
2023-02-27T09:28:58.205Z,10.50
2023-02-27T09:31:26.535Z,10.90
2023-02-27T09:33:55.611Z,11.20
2023-02-27T09:36:23.604Z,11.50
2023-02-27T09:38:51.468Z,11.70
2023-02-27T09:41:36.849Z,12.10
2023-02-27T09:44:14.006Z,12.40
2023-02-27T09:46:41.927Z,13.00
2023-02-27T09:49:16.544Z,13.50
2023-02-27T09:51:44.514Z,14.10
2023-02-27T09:54:14.202Z,14.80
2023-02-27T09:56:50.501Z,15.40
2023-02-27T09:59:32.310Z,16.00
2023-02-27T10:02:11.460Z,16.90
2023-02-27T10:04:45.474Z,17.80
2023-02-27T10:07:18.542Z,18.90
2023-02-27T10:09:56.235Z,19.70
2023-02-27T10:12:38.348Z,20.80
2023-02-27T10:15:15.151Z,22.20
2023-02-27T10:17:50.134Z,23.50
2023-02-27T10:20:23.474Z,24.30
2023-02-27T10:22:52.936Z,24.80
2023-02-27T10:25:31.360Z,25.30
2023-02-27T10:28:06.972Z,26.10
2023-02-27T10:30:36.745Z,26.40
2023-02-27T10:33:28.136Z,26.70
2023-02-27T10:35:56.340Z,25.50
2023-02-27T10:38:33.207Z,25.20
2023-02-27T10:41:02.466Z,24.50
2023-02-27T10:43:30.694Z,24.00
2023-02-27T10:46:02.533Z,24.50
2023-02-27T10:48:32.797Z,23.80
2023-02-27T10:51:23.369Z,22.80
2023-02-27T10:53:52.741Z,22.10
2023-02-27T10:56:27.127Z,21.20
2023-02-27T10:59:06.520Z,20.00
2023-02-27T11:01:48.109Z,18.80
2023-02-27T11:04:24.186Z,18.80
2023-02-27T11:06:53.752Z,18.30
2023-02-27T11:09:23.592Z,18.60
2023-02-27T11:11:52.594Z,17.40
2023-02-27T11:14:30.168Z,16.20
2023-02-27T11:17:01.001Z,15.60
2023-02-27T11:19:34.897Z,16.30
2023-02-27T11:22:05.293Z,17.70
2023-02-27T11:24:33.593Z,19.20
2023-02-27T11:27:06.369Z,21.00
2023-02-27T11:29:35.735Z,21.50
2023-02-27T11:32:11.416Z,20.00
2023-02-27T11:34:41.769Z,19.40
2023-02-27T11:37:23.776Z,20.40
2023-02-27T11:39:54.638Z,20.10
2023-02-27T11:42:28.067Z,18.90
2023-02-27T11:44:59.267Z,17.20
2023-02-27T11:47:32.449Z,15.80
2023-02-27T11:50:34.524Z,15.00
2023-02-27T11:53:15.810Z,16.80
2023-02-27T11:55:45.365Z,19.90
2023-02-27T11:58:16.809Z,22.50
2023-02-27T12:00:50.054Z,24.60
2023-02-27T12:03:25.993Z,26.10
2023-02-27T12:05:58.091Z,27.40
2023-02-27T12:08:33.444Z,28.10
2023-02-27T12:11:13.941Z,28.70
2023-02-27T12:13:46.478Z,29.10
2023-02-27T12:16:23.224Z,29.50
2023-02-27T12:18:56.445Z,29.40
2023-02-27T12:21:27.565Z,29.80
2023-02-27T12:24:01.342Z,30.10
2023-02-27T12:26:33.858Z,30.20
2023-02-27T12:29:10.395Z,30.70
2023-02-27T12:31:45.893Z,30.90
2023-02-27T12:34:27.011Z,30.50
2023-02-27T12:36:57.180Z,28.40
2023-02-27T12:39:26.274Z,25.90
2023-02-27T12:42:31.177Z,25.10
2023-02-27T12:45:30.217Z,24.70
2023-02-27T12:48:10.637Z,24.30
2023-02-27T12:50:51.021Z,22.80
2023-02-27T12:53:32.938Z,21.10
2023-02-27T12:56:06.859Z,21.10
2023-02-27T12:58:44.491Z,22.30
2023-02-27T13:01:26.156Z,23.00
2023-02-27T13:04:00.558Z,22.20
2023-02-27T13:06:37.322Z,22.50
2023-02-27T13:09:15.874Z,22.70
2023-02-27T13:11:55.066Z,23.10
2023-02-27T13:14:35.417Z,21.50
2023-02-27T13:17:05.876Z,19.50
2023-02-27T13:19:38.522Z,18.90
2023-02-27T13:22:17.207Z,19.60
2023-02-27T13:24:50.508Z,20.10
2023-02-27T13:27:25.029Z,20.10
2023-02-27T13:30:05.350Z,20.40
2023-02-27T13:32:45.341Z,20.80
2023-02-27T13:35:24.399Z,20.60
2023-02-27T13:37:58.145Z,20.30
2023-02-27T13:40:35.730Z,20.70
2023-02-27T13:43:07.077Z,21.10
2023-02-27T13:46:02.350Z,21.30
2023-02-27T13:48:48.125Z,21.10
2023-02-27T13:51:59.344Z,21.10
2023-02-27T13:54:34.377Z,21.20
2023-02-27T13:57:21.354Z,20.30
2023-02-27T14:00:06.138Z,19.60
2023-02-27T14:02:46.604Z,19.00
2023-02-27T14:05:29.870Z,18.90
2023-02-27T14:08:08.513Z,18.90
2023-02-27T14:10:40.210Z,18.60
2023-02-27T14:13:58.298Z,18.00
2023-02-27T14:17:08.470Z,17.20
2023-02-27T14:19:56.765Z,15.80
2023-02-27T14:23:00.810Z,14.40
2023-02-27T14:25:34.334Z,13.50
2023-02-27T14:28:05.048Z,13.30
2023-02-27T14:30:40.767Z,13.30
2023-02-27T14:33:24.065Z,13.00
2023-02-27T14:36:01.461Z,12.50
2023-02-27T14:38:30.859Z,11.80
2023-02-27T14:41:11.065Z,11.30
2023-02-27T14:43:44.907Z,10.90
2023-02-27T14:46:21.424Z,10.50
2023-02-27T14:48:54.353Z,10.10
2023-02-27T14:51:23.299Z,9.80
2023-02-27T14:54:06.321Z,9.60
2023-02-27T14:56:35.844Z,9.30
2023-02-27T14:59:24.818Z,9.20
2023-02-27T15:01:53.996Z,9.10
2023-02-27T15:04:24.888Z,8.90
2023-02-27T15:06:54.247Z,8.90
2023-02-27T15:09:24.715Z,9.00
2023-02-27T15:12:03.398Z,8.80
2023-02-27T15:14:36.523Z,8.70
2023-02-27T15:17:05.230Z,8.50
2023-02-27T15:19:33.266Z,8.30
2023-02-27T15:22:05.184Z,8.20
2023-02-27T15:24:49.247Z,8.00
2023-02-27T15:27:21.118Z,7.90
2023-02-27T15:29:53.347Z,7.90
2023-02-27T15:32:28.626Z,7.80
2023-02-27T15:34:57.709Z,7.70
2023-02-27T15:37:28.412Z,7.60
2023-02-27T15:39:57.001Z,7.50
2023-02-27T15:42:28.264Z,7.50
2023-02-27T15:44:59.353Z,7.50
2023-02-27T15:47:29.150Z,7.40
2023-02-27T15:50:02.257Z,7.30
2023-02-27T15:52:39.642Z,7.10
2023-02-27T15:55:14.313Z,7.00
2023-02-27T15:57:56.582Z,6.80
2023-02-27T16:00:32.759Z,6.70
2023-02-27T16:03:01.171Z,6.60
2023-02-27T16:05:34.592Z,6.60
2023-02-27T16:08:03.483Z,6.60
2023-02-27T16:10:36.758Z,6.60
2023-02-27T16:13:37.660Z,6.50
2023-02-27T16:16:22.600Z,6.50
2023-02-27T16:18:52.765Z,6.50
2023-02-27T16:21:22.135Z,6.40
2023-02-27T16:23:50.904Z,6.30
2023-02-27T16:26:37.466Z,6.30
2023-02-27T16:29:07.964Z,6.20
2023-02-27T16:31:39.828Z,6.20
2023-02-27T16:34:16.721Z,6.10
2023-02-27T16:36:53.849Z,6.00
2023-02-27T16:39:21.838Z,6.00
2023-02-27T16:41:50.088Z,6.00
2023-02-27T16:44:18.383Z,5.90
2023-02-27T16:46:47.711Z,5.80
2023-02-27T16:49:20.858Z,5.80
2023-02-27T16:51:49.095Z,5.80
2023-02-27T16:54:17.535Z,5.70
2023-02-27T16:56:47.230Z,5.70
2023-02-27T16:59:27.935Z,5.60
2023-02-27T17:01:57.670Z,5.60
2023-02-27T17:04:26.362Z,5.60
2023-02-27T17:06:55.181Z,5.50
2023-02-27T17:09:23.455Z,5.50
2023-02-27T17:11:51.387Z,5.40
2023-02-27T17:14:19.294Z,5.40
2023-02-27T17:16:47.671Z,5.40
2023-02-27T17:19:17.128Z,5.40
2023-02-27T17:21:45.028Z,5.30
2023-02-27T17:24:12.994Z,5.30
2023-02-27T17:26:40.843Z,5.30
2023-02-27T17:29:09.589Z,5.20
2023-02-27T17:31:37.566Z,5.20
2023-02-27T17:34:08.646Z,5.20
2023-02-27T17:36:38.260Z,5.20
2023-02-27T17:39:07.060Z,5.20
2023-02-27T17:41:35.081Z,5.20
2023-02-27T17:44:03.006Z,5.20
2023-02-27T17:46:32.146Z,5.10
2023-02-27T17:49:01.089Z,5.00
2023-02-27T17:51:30.482Z,5.00
2023-02-27T17:54:02.585Z,5.00
2023-02-27T17:56:30.915Z,4.90
2023-02-27T17:58:59.166Z,4.80
2023-02-27T18:01:27.492Z,4.80
2023-02-27T18:03:55.820Z,4.80
2023-02-27T18:06:24.476Z,4.70
2023-02-27T18:08:52.473Z,4.70
2023-02-27T18:11:23.076Z,4.70
2023-02-27T18:13:51.496Z,4.60
2023-02-27T18:16:21.920Z,4.50
2023-02-27T18:18:50.358Z,4.50
2023-02-27T18:21:20.976Z,4.50
2023-02-27T18:23:49.459Z,4.40
2023-02-27T18:26:29.400Z,4.40
2023-02-27T18:29:01.064Z,4.30
2023-02-27T18:31:31.251Z,4.30
2023-02-27T18:33:59.134Z,4.30
2023-02-27T18:36:27.457Z,4.30
2023-02-27T18:38:55.762Z,4.20
2023-02-27T18:41:23.925Z,4.20
2023-02-27T18:43:51.956Z,4.20
2023-02-27T18:46:21.337Z,4.10
2023-02-27T18:48:49.259Z,4.10
2023-02-27T18:51:18.358Z,4.10
2023-02-27T18:53:48.381Z,4.10
2023-02-27T18:56:18.486Z,4.10
2023-02-27T18:58:46.649Z,4.00
2023-02-27T19:01:24.403Z,4.00
2023-02-27T19:03:53.224Z,4.00
2023-02-27T19:06:21.194Z,3.90
2023-02-27T19:08:49.257Z,3.90
2023-02-27T19:11:23.118Z,3.90
2023-02-27T19:13:51.043Z,3.90
2023-02-27T19:16:19.251Z,3.90
2023-02-27T19:18:48.559Z,3.90
2023-02-27T19:21:16.528Z,3.90
2023-02-27T19:23:44.427Z,3.90
2023-02-27T19:26:12.251Z,3.90
2023-02-27T19:28:40.163Z,3.80
2023-02-27T19:31:09.567Z,3.80
2023-02-27T19:33:37.833Z,3.80
2023-02-27T19:36:09.161Z,3.70
2023-02-27T19:38:37.176Z,3.70
2023-02-27T19:41:07.133Z,3.70
2023-02-27T19:43:36.148Z,3.60
2023-02-27T19:46:06.019Z,3.60
2023-02-27T19:48:33.935Z,3.50
2023-02-27T19:51:03.439Z,3.50
2023-02-27T19:53:33.846Z,3.50
2023-02-27T19:56:03.506Z,3.40
2023-02-27T19:58:33.467Z,3.40
2023-02-27T20:01:01.716Z,3.40
2023-02-27T20:03:30.044Z,3.40
2023-02-27T20:05:58.390Z,3.30
2023-02-27T20:08:26.256Z,3.30
2023-02-27T20:10:56.805Z,3.30
2023-02-27T20:13:24.919Z,3.30
2023-02-27T20:15:59.757Z,3.30
2023-02-27T20:18:29.840Z,3.30
2023-02-27T20:21:03.289Z,3.30
2023-02-27T20:23:31.639Z,3.30
2023-02-27T20:26:01.582Z,3.30
2023-02-27T20:28:29.501Z,3.30
2023-02-27T20:30:57.416Z,3.30
2023-02-27T20:33:25.253Z,3.40
2023-02-27T20:35:53.098Z,3.40
2023-02-27T20:38:22.609Z,3.40
2023-02-27T20:40:51.235Z,3.40
2023-02-27T20:43:20.528Z,3.40
2023-02-27T20:45:48.488Z,3.40
2023-02-27T20:48:16.440Z,3.40
2023-02-27T20:50:44.281Z,3.40
2023-02-27T20:53:12.162Z,3.40
2023-02-27T20:55:48.498Z,3.40
2023-02-27T20:58:16.551Z,3.40
2023-02-27T21:00:45.801Z,3.40
2023-02-27T21:03:13.729Z,3.40
2023-02-27T21:05:47.965Z,3.40
2023-02-27T21:08:15.903Z,3.40
2023-02-27T21:10:44.693Z,3.50
2023-02-27T21:13:12.611Z,3.40
2023-02-27T21:15:40.542Z,3.40
2023-02-27T21:18:09.793Z,3.50
2023-02-27T21:20:40.783Z,3.40
2023-02-27T21:23:08.744Z,3.40
2023-02-27T21:25:40.812Z,3.40
2023-02-27T21:28:08.766Z,3.50
2023-02-27T21:30:37.112Z,3.50
2023-02-27T21:33:05.386Z,3.50
2023-02-27T21:35:34.716Z,3.40
2023-02-27T21:38:02.678Z,3.50
2023-02-27T21:40:30.627Z,3.40
2023-02-27T21:42:58.533Z,3.40
2023-02-27T21:45:26.394Z,3.40
2023-02-27T21:47:54.296Z,3.40
2023-02-27T21:50:23.061Z,3.30
2023-02-27T21:52:52.312Z,3.30
2023-02-27T21:55:20.342Z,3.20
2023-02-27T21:57:48.277Z,3.20
2023-02-27T22:00:16.823Z,3.20
2023-02-27T22:02:44.790Z,3.10
2023-02-27T22:05:12.721Z,3.10
2023-02-27T22:07:40.648Z,3.00
2023-02-27T22:10:12.158Z,2.90
2023-02-27T22:12:40.054Z,2.90
2023-02-27T22:15:09.133Z,2.90
2023-02-27T22:17:37.078Z,2.90
2023-02-27T22:20:06.889Z,2.90
2023-02-27T22:22:34.868Z,2.80
2023-02-27T22:25:02.770Z,2.80
2023-02-27T22:27:32.715Z,2.80
2023-02-27T22:30:00.579Z,2.70
2023-02-27T22:32:28.624Z,2.70
2023-02-27T22:34:59.568Z,2.60
2023-02-27T22:37:28.264Z,2.60
2023-02-27T22:39:56.171Z,2.50
2023-02-27T22:42:24.025Z,2.50
2023-02-27T22:44:53.274Z,2.60
2023-02-27T22:47:21.144Z,2.50
2023-02-27T22:49:51.411Z,2.50
2023-02-27T22:52:19.809Z,2.50
2023-02-27T22:54:50.531Z,2.50
2023-02-27T22:57:18.445Z,2.40
2023-02-27T22:59:47.174Z,2.40
2023-02-27T23:02:17.236Z,2.40
2023-02-27T23:04:45.316Z,2.40
2023-02-27T23:07:13.179Z,2.30
2023-02-27T23:09:41.149Z,2.40
2023-02-27T23:12:11.709Z,2.40
2023-02-27T23:14:39.546Z,2.30
2023-02-27T23:17:07.691Z,2.30
2023-02-27T23:19:36.956Z,2.30
2023-02-27T23:22:05.204Z,2.30
2023-02-27T23:24:33.035Z,2.30
2023-02-27T23:27:02.718Z,2.20
2023-02-27T23:29:30.630Z,2.30
2023-02-27T23:31:58.665Z,2.20
2023-02-27T23:34:26.612Z,2.20
2023-02-27T23:36:55.799Z,2.20
2023-02-27T23:39:23.666Z,2.20
2023-02-27T23:41:51.516Z,2.20
2023-02-27T23:44:19.416Z,2.10
2023-02-27T23:46:47.378Z,2.20
2023-02-27T23:49:15.416Z,2.10
2023-02-27T23:51:43.394Z,2.10
2023-02-27T23:54:12.758Z,2.10
2023-02-27T23:56:40.724Z,2.00
2023-02-27T23:59:08.778Z,2.10
